Time;durP1;ratioP1;P1;durP2;ratioP2;P2;SDS_P1;SDS_P2;PMS_P1;PMS_P2;Temp;Humidity;BMP_temperature;BMP_pressure;BME280_temperature;BME280_humidity;BME280_pressure;Samples;Min_cycle;Max_cycle;Signal;HPM_P1;HPM_P2
2022/12/10 00:08:41;;;;;;;58.85;22.23;;;0.40;99.90;;;;;;20923031;28;20029;-79
2022/12/10 00:18:43;;;;;;;50.60;21.42;;;0.40;99.90;;;;;;20928164;28;20028;-79
2022/12/10 00:28:45;;;;;;;57.13;21.42;;;0.40;99.90;;;;;;20940093;28;20025;-79
2022/12/10 00:38:47;;;;;;;54.65;20.98;;;0.40;99.90;;;;;;20946969;28;20060;-79
2022/12/10 00:48:48;;;;;;;59.50;21.92;;;0.40;99.90;;;;;;20933229;28;20402;-78
2022/12/10 00:58:50;;;;;;;58.22;21.63;;;0.40;99.90;;;;;;20915380;28;20407;-78
2022/12/10 01:08:53;;;;;;;59.38;21.33;;;0.30;99.90;;;;;;20908284;28;20146;-79
2022/12/10 01:18:55;;;;;;;62.22;23.42;;;0.40;99.90;;;;;;20946656;22;20017;-81
2022/12/10 01:28:58;;;;;;;59.63;21.42;;;0.40;99.90;;;;;;21184841;28;20028;-81
2022/12/10 01:39:00;;;;;;;68.57;24.13;;;0.30;99.90;;;;;;21117629;28;20562;-81
2022/12/10 01:49:03;;;;;;;75.38;26.27;;;0.40;99.90;;;;;;21128380;28;20028;-81
2022/12/10 01:59:05;;;;;;;87.32;26.00;;;0.30;99.90;;;;;;21176610;28;20031;-81
2022/12/10 02:09:48;;;;;;;103.82;29.17;;;0.30;99.90;;;;;;21101788;28;20439;-81
2022/12/10 02:20:28;;;;;;;93.32;27.77;;;0.30;99.90;;;;;;21106394;28;20481;-80
2022/12/10 02:30:32;;;;;;;82.25;27.02;;;0.20;99.90;;;;;;21064489;28;20067;-82
2022/12/10 02:40:36;;;;;;;86.25;24.77;;;0.30;99.90;;;;;;21171222;28;20031;-82
2022/12/10 02:50:40;;;;;;;85.63;25.83;;;0.40;99.90;;;;;;21126529;28;20058;-82
2022/12/10 03:01:16;;;;;;;75.03;24.38;;;0.30;99.90;;;;;;21098419;28;20032;-81
2022/12/10 03:11:20;;;;;;;77.60;24.42;;;0.20;99.90;;;;;;21061797;28;20508;-82
2022/12/10 03:21:24;;;;;;;74.40;24.48;;;0.30;99.90;;;;;;21172596;28;20039;-82
2022/12/10 03:31:26;;;;;;;77.65;24.67;;;0.20;99.90;;;;;;21084542;28;20024;-82
2022/12/10 03:41:27;;;;;;;75.90;23.00;;;0.30;99.90;;;;;;21109536;28;20027;-81
2022/12/10 03:51:27;;;;;;;69.75;23.67;;;0.30;99.90;;;;;;21102298;28;20020;-81
2022/12/10 04:01:28;;;;;;;71.10;22.55;;;0.20;99.90;;;;;;21030634;28;20031;-81
2022/12/10 04:11:29;;;;;;;62.78;22.17;;;0.20;99.90;;;;;;21041513;28;20410;-81
2022/12/10 04:31:51;;;;;;;79.95;26.30;;;0.30;99.90;;;;;;21054287;28;20389;-80
2022/12/10 04:41:52;;;;;;;83.85;28.48;;;0.20;99.90;;;;;;21051678;28;20063;-81
2022/12/10 04:51:53;;;;;;;73.90;26.98;;;0.20;99.90;;;;;;21060545;28;20034;-80
2022/12/10 05:01:54;;;;;;;79.75;25.85;;;0.10;99.90;;;;;;21059904;28;20055;-80
2022/12/10 05:11:55;;;;;;;62.90;23.00;;;0.10;99.90;;;;;;21070277;28;20027;-80
2022/12/10 05:32:14;;;;;;;79.20;25.00;;;0.10;99.90;;;;;;21059842;28;20035;-80
2022/12/10 05:42:15;;;;;;;64.75;24.70;;;0.20;99.90;;;;;;21069471;28;20028;-81
2022/12/10 05:52:16;;;;;;;67.45;26.42;;;0.10;99.90;;;;;;21052622;28;20398;-81
2022/12/10 06:02:18;;;;;;;77.35;27.33;;;0.10;99.90;;;;;;21042964;28;20025;-81
2022/12/10 06:12:19;;;;;;;74.75;27.17;;;0.10;99.90;;;;;;21040233;28;20565;-81
2022/12/10 06:22:19;;;;;;;75.13;28.40;;;0.10;99.90;;;;;;21072400;28;20036;-80
2022/12/10 06:32:20;;;;;;;74.03;27.60;;;0.10;99.90;;;;;;21054211;28;20052;-81
2022/12/10 06:42:21;;;;;;;66.07;25.63;;;0.10;99.90;;;;;;21069346;28;20028;-81
2022/12/10 06:52:22;;;;;;;66.95;27.85;;;0.10;99.90;;;;;;21063490;28;20032;-80
2022/12/10 07:02:23;;;;;;;83.53;28.95;;;0.10;99.90;;;;;;21059954;28;20413;-81
2022/12/10 07:12:24;;;;;;;76.13;27.92;;;0.10;99.90;;;;;;21074645;28;20106;-80
2022/12/10 07:22:25;;;;;;;77.85;27.00;;;0.10;99.90;;;;;;21055698;22;20079;-83
2022/12/10 07:32:27;;;;;;;69.68;27.80;;;0.10;99.90;;;;;;20922601;28;20033;-81
2022/12/10 07:42:28;;;;;;;65.10;26.48;;;0.10;99.90;;;;;;20889560;28;20065;-80
2022/12/10 07:52:28;;;;;;;77.50;27.35;;;0.10;99.90;;;;;;20881939;28;20501;-80
2022/12/10 08:02:29;;;;;;;77.53;27.17;;;0.20;99.90;;;;;;20877786;28;20037;-80
2022/12/10 08:12:30;;;;;;;74.72;26.90;;;0.10;99.90;;;;;;20873660;28;20092;-80
2022/12/10 08:22:32;;;;;;;97.25;33.58;;;0.20;99.90;;;;;;20928559;28;20031;-79
2022/12/10 08:32:33;;;;;;;72.45;26.80;;;0.20;99.90;;;;;;21022031;28;20439;-80
2022/12/10 08:42:35;;;;;;;74.05;27.80;;;0.20;99.90;;;;;;21007190;28;20418;-81
2022/12/10 08:52:36;;;;;;;75.63;26.45;;;0.30;99.90;;;;;;21021111;28;20027;-80
2022/12/10 09:02:37;;;;;;;77.57;30.35;;;0.20;99.90;;;;;;21023862;28;20072;-81
2022/12/10 09:12:38;;;;;;;58.42;23.73;;;0.30;99.90;;;;;;20991119;28;20478;-81
2022/12/10 09:22:39;;;;;;;53.70;21.70;;;0.30;99.90;;;;;;20975902;28;20090;-78
2022/12/10 09:32:41;;;;;;;51.60;21.38;;;0.30;99.90;;;;;;21006255;28;20025;-79
2022/12/10 09:43:17;;;;;;;53.25;20.75;;;0.30;99.90;;;;;;20984064;28;20029;-81
2022/12/10 09:53:20;;;;;;;58.42;23.75;;;0.30;99.90;;;;;;21018231;28;20108;-80
2022/12/10 10:03:21;;;;;;;55.83;20.10;;;0.30;99.90;;;;;;21018776;28;20036;-78
2022/12/10 10:13:39;;;;;;;61.95;23.08;;;0.40;99.90;;;;;;20997988;28;20021;-81
2022/12/10 10:23:42;;;;;;;60.22;20.98;;;0.40;99.90;;;;;;20983971;28;20029;-81
2022/12/10 10:33:56;;;;;;;63.22;22.23;;;0.40;99.90;;;;;;20877619;28;20040;-80
2022/12/10 10:44:01;;;;;;;53.00;20.58;;;0.40;99.90;;;;;;20905003;28;20041;-80
2022/12/10 10:54:02;;;;;;;65.72;25.13;;;0.40;99.90;;;;;;20856203;28;20065;-81
2022/12/10 11:04:03;;;;;;;61.17;22.92;;;0.40;99.90;;;;;;20926262;28;20041;-80
2022/12/10 11:14:23;;;;;;;71.85;24.33;;;0.40;99.90;;;;;;20915083;28;20390;-80
2022/12/10 11:24:25;;;;;;;72.22;25.17;;;0.50;99.90;;;;;;20875232;28;20049;-81
2022/12/10 11:34:29;;;;;;;82.50;26.27;;;0.50;99.90;;;;;;20915590;28;20029;-82
2022/12/10 11:44:37;;;;;;;83.00;26.13;;;0.50;99.90;;;;;;20900010;28;20025;-83
2022/12/10 11:55:05;;;;;;;72.88;22.98;;;0.50;99.90;;;;;;20885107;28;20039;-80
2022/12/10 12:05:44;;;;;;;79.13;25.25;;;0.50;99.90;;;;;;20922717;28;20029;-80
2022/12/10 12:15:54;;;;;;;75.60;26.98;;;0.50;99.90;;;;;;20902771;28;20029;-77
2022/12/10 12:26:12;;;;;;;81.13;25.70;;;0.50;99.90;;;;;;20952005;28;20487;-78
2022/12/10 12:36:25;;;;;;;84.95;27.20;;;0.50;99.90;;;;;;20999823;28;20033;-79
2022/12/10 12:46:47;;;;;;;85.05;25.65;;;0.50;99.90;;;;;;20997139;28;20170;-79
2022/12/10 12:56:51;;;;;;;87.20;29.05;;;0.50;99.90;;;;;;20940113;28;20036;-77
2022/12/10 13:07:13;;;;;;;81.32;27.10;;;0.50;99.90;;;;;;20945781;28;20033;-77
2022/12/10 13:17:14;;;;;;;88.40;28.02;;;0.50;99.90;;;;;;20930071;28;20029;-80
2022/12/10 13:27:18;;;;;;;76.53;27.05;;;0.50;99.90;;;;;;21226165;23;20412;-83
2022/12/10 13:37:31;;;;;;;69.00;25.25;;;0.50;99.90;;;;;;21297330;27;20402;-82
2022/12/10 13:47:53;;;;;;;82.47;25.58;;;0.50;99.90;;;;;;21272742;27;20435;-83
2022/12/10 13:58:15;;;;;;;74.32;28.65;;;0.50;99.90;;;;;;21161033;28;20031;-82
2022/12/10 14:08:36;;;;;;;81.68;28.55;;;0.40;99.90;;;;;;21235004;27;20038;-81
2022/12/10 14:18:38;;;;;;;87.13;29.73;;;0.40;99.90;;;;;;21203163;27;20051;-81
2022/12/10 14:28:49;;;;;;;82.15;27.55;;;0.40;99.90;;;;;;21159613;27;20027;-82
2022/12/10 14:38:50;;;;;;;78.70;26.85;;;0.40;99.90;;;;;;21171043;27;20525;-82
2022/12/10 14:48:52;;;;;;;80.30;27.95;;;0.40;99.90;;;;;;21187952;27;20043;-82
2022/12/10 14:59:00;;;;;;;87.03;30.60;;;0.40;99.90;;;;;;21179404;28;20059;-82
2022/12/10 15:09:03;;;;;;;83.20;28.20;;;0.40;99.90;;;;;;21208859;27;20062;-82
2022/12/10 15:19:20;;;;;;;91.88;30.70;;;0.40;99.90;;;;;;21179899;27;20100;-81
2022/12/10 15:29:21;;;;;;;93.90;29.67;;;0.30;99.90;;;;;;21169076;27;20114;-80
2022/12/10 15:39:26;;;;;;;86.20;28.83;;;0.30;99.90;;;;;;21122067;27;20020;-83
2022/12/10 15:49:28;;;;;;;87.43;31.35;;;0.30;99.90;;;;;;21113372;28;20028;-83
2022/12/10 15:59:29;;;;;;;94.43;28.65;;;0.30;99.90;;;;;;21081656;28;20436;-81
2022/12/10 16:09:30;;;;;;;84.88;28.83;;;0.20;99.90;;;;;;21162719;27;20035;-82
2022/12/10 16:19:30;;;;;;;93.68;30.35;;;0.30;99.90;;;;;;21165346;27;20553;-83
2022/12/10 16:29:31;;;;;;;92.07;29.65;;;0.20;99.90;;;;;;21085207;28;20028;-82
2022/12/10 16:39:33;;;;;;;87.72;29.48;;;0.20;99.90;;;;;;21072418;28;20024;-82
2022/12/10 16:49:34;;;;;;;90.20;30.08;;;0.20;99.90;;;;;;21070943;28;20032;-81
2022/12/10 16:59:35;;;;;;;88.20;29.10;;;0.20;99.90;;;;;;21067861;28;20451;-81
2022/12/10 17:09:36;;;;;;;92.72;31.30;;;0.20;99.90;;;;;;21051797;28;20401;-82
2022/12/10 17:19:40;;;;;;;95.00;30.23;;;0.20;99.90;;;;;;21084075;28;20036;-82
2022/12/10 17:29:49;;;;;;;96.50;29.35;;;0.10;99.90;;;;;;21050282;28;20135;-82
2022/12/10 17:39:50;;;;;;;80.47;28.13;;;0.10;99.90;;;;;;21089325;28;20028;-82
2022/12/10 17:49:51;;;;;;;86.03;28.50;;;0.10;99.90;;;;;;21078256;28;20046;-82
2022/12/10 17:59:52;;;;;;;80.40;27.85;;;0.10;99.90;;;;;;21104513;28;20063;-83
2022/12/10 18:09:53;;;;;;;87.82;26.67;;;0.10;99.90;;;;;;21074388;28;20493;-83
2022/12/10 18:19:53;;;;;;;74.05;25.85;;;0.00;99.90;;;;;;21099890;28;20062;-83
2022/12/10 18:29:54;;;;;;;67.28;23.73;;;0.10;99.90;;;;;;21080830;28;21361;-82
2022/12/10 18:39:55;;;;;;;62.85;24.63;;;0.10;99.90;;;;;;21085345;28;20062;-80
2022/12/10 18:49:56;;;;;;;64.00;23.08;;;0.10;99.90;;;;;;21096368;28;20368;-81
2022/12/10 18:59:57;;;;;;;58.88;21.77;;;-0.10;99.90;;;;;;21123394;28;20501;-83
2022/12/10 19:09:57;;;;;;;58.03;21.70;;;-0.20;99.90;;;;;;21100730;27;20074;-82
2022/12/10 19:30:00;;;;;;;62.08;22.20;;;0.00;99.90;;;;;;21009779;22;20076;-79
2022/12/10 19:40:01;;;;;;;49.65;21.50;;;0.10;99.90;;;;;;21005227;28;20040;-79
2022/12/10 19:50:03;;;;;;;58.25;20.40;;;0.10;99.90;;;;;;20990566;28;20052;-77
2022/12/10 20:00:10;;;;;;;50.58;20.48;;;0.10;99.90;;;;;;20920769;28;20082;-78
2022/12/10 20:10:28;;;;;;;50.00;21.48;;;0.20;99.90;;;;;;20918639;28;20154;-78
2022/12/10 20:20:29;;;;;;;48.17;19.75;;;0.30;99.90;;;;;;20924520;28;20033;-77
2022/12/10 20:30:30;;;;;;;54.35;22.52;;;0.30;99.90;;;;;;20982661;28;20077;-78
2022/12/10 20:40:30;;;;;;;50.25;21.88;;;0.20;99.90;;;;;;20983225;28;20123;-79
2022/12/10 20:50:31;;;;;;;57.78;21.85;;;0.10;99.90;;;;;;21005160;28;20047;-78
2022/12/10 21:00:32;;;;;;;50.85;21.70;;;0.10;99.90;;;;;;21017760;28;20025;-78
2022/12/10 21:10:53;;;;;;;52.47;20.20;;;0.10;99.90;;;;;;20957905;28;20078;-78
2022/12/10 21:20:54;;;;;;;45.40;19.08;;;0.00;99.90;;;;;;20963023;28;20040;-78
2022/12/10 21:30:55;;;;;;;46.67;19.60;;;-0.10;99.90;;;;;;20952438;28;20043;-78
2022/12/10 21:40:56;;;;;;;41.22;17.40;;;-0.20;99.90;;;;;;20948191;28;20045;-78
2022/12/10 21:51:01;;;;;;;40.67;17.92;;;-0.40;99.90;;;;;;20953762;28;20399;-79
2022/12/10 22:01:02;;;;;;;45.20;18.35;;;-0.70;99.90;;;;;;21018963;28;20131;-77
2022/12/10 22:11:06;;;;;;;61.38;22.42;;;-1.00;99.90;;;;;;20933265;28;20033;-78
2022/12/10 22:21:08;;;;;;;166.32;25.73;;;-1.00;99.90;;;;;;20989400;28;20032;-78
2022/12/10 22:31:09;;;;;;;53.10;19.65;;;-1.00;99.90;;;;;;20978697;28;20521;-79
2022/12/10 22:41:10;;;;;;;50.25;17.65;;;-1.00;99.90;;;;;;20995836;28;20115;-78
2022/12/10 22:51:11;;;;;;;39.92;16.85;;;-1.20;99.90;;;;;;20995832;28;20461;-79
2022/12/10 23:01:16;;;;;;;44.67;18.05;;;-1.30;99.90;;;;;;21010463;28;20036;-78
2022/12/10 23:11:17;;;;;;;51.35;19.23;;;-1.80;99.90;;;;;;21010286;28;20039;-78
2022/12/10 23:21:21;;;;;;;31.15;13.32;;;-2.10;99.90;;;;;;20998178;28;20033;-77
2022/12/10 23:31:22;;;;;;;43.17;14.70;;;-2.30;99.90;;;;;;21071533;28;20032;-78
2022/12/10 23:41:23;;;;;;;35.97;14.23;;;-2.60;99.90;;;;;;21079216;28;20035;-78
2022/12/10 23:51:24;;;;;;;30.50;12.77;;;-2.70;99.90;;;;;;21017779;28;20040;-78
